sensor_id;sensor_type;location;lat;lon;timestamp;pressure;altitude;pressure_sealevel;temperature
77414;BMP280;66486;49.992;19.164;2023-03-23T00:01:05;98388.78;;;8.58
77414;BMP280;66486;49.992;19.164;2023-03-23T00:03:32;98390.50;;;8.71
77414;BMP280;66486;49.992;19.164;2023-03-23T00:05:59;98391.84;;;8.83
77414;BMP280;66486;49.992;19.164;2023-03-23T00:08:28;98394.09;;;8.85
77414;BMP280;66486;49.992;19.164;2023-03-23T00:10:54;98396.31;;;8.90
77414;BMP280;66486;49.992;19.164;2023-03-23T00:13:24;98395.63;;;8.86
77414;BMP280;66486;49.992;19.164;2023-03-23T00:15:50;98387.13;;;8.87
77414;BMP280;66486;49.992;19.164;2023-03-23T00:18:21;98397.78;;;8.94
77414;BMP280;66486;49.992;19.164;2023-03-23T00:20:55;98399.38;;;8.88
77414;BMP280;66486;49.992;19.164;2023-03-23T00:23:24;98394.72;;;8.92
77414;BMP280;66486;49.992;19.164;2023-03-23T00:25:55;98392.91;;;8.66
77414;BMP280;66486;49.992;19.164;2023-03-23T00:28:26;98390.44;;;8.52
77414;BMP280;66486;49.992;19.164;2023-03-23T00:31:05;98393.84;;;8.56
77414;BMP280;66486;49.992;19.164;2023-03-23T00:33:35;98389.91;;;8.37
77414;BMP280;66486;49.992;19.164;2023-03-23T00:36:13;98396.91;;;8.04
77414;BMP280;66486;49.992;19.164;2023-03-23T00:38:40;98394.88;;;8.12
77414;BMP280;66486;49.992;19.164;2023-03-23T00:41:07;98403.38;;;8.34
77414;BMP280;66486;49.992;19.164;2023-03-23T00:43:37;98391.28;;;8.22
77414;BMP280;66486;49.992;19.164;2023-03-23T00:46:04;98398.81;;;8.31
77414;BMP280;66486;49.992;19.164;2023-03-23T00:48:38;98395.63;;;8.39
77414;BMP280;66486;49.992;19.164;2023-03-23T00:51:11;98400.13;;;8.46
77414;BMP280;66486;49.992;19.164;2023-03-23T00:53:40;98408.09;;;8.49
77414;BMP280;66486;49.992;19.164;2023-03-23T00:56:08;98413.16;;;8.44
77414;BMP280;66486;49.992;19.164;2023-03-23T00:58:35;98397.06;;;8.44
77414;BMP280;66486;49.992;19.164;2023-03-23T01:01:02;98406.66;;;8.45
77414;BMP280;66486;49.992;19.164;2023-03-23T01:03:28;98400.19;;;8.42
77414;BMP280;66486;49.992;19.164;2023-03-23T01:05:54;98400.72;;;8.30
77414;BMP280;66486;49.992;19.164;2023-03-23T01:08:22;98405.84;;;8.21
77414;BMP280;66486;49.992;19.164;2023-03-23T01:10:49;98399.22;;;8.29
77414;BMP280;66486;49.992;19.164;2023-03-23T01:13:16;98409.81;;;8.13
77414;BMP280;66486;49.992;19.164;2023-03-23T01:15:42;98406.63;;;7.95
77414;BMP280;66486;49.992;19.164;2023-03-23T01:18:09;98403.03;;;8.05
77414;BMP280;66486;49.992;19.164;2023-03-23T01:20:36;98403.25;;;7.87
77414;BMP280;66486;49.992;19.164;2023-03-23T01:23:03;98401.13;;;7.75
77414;BMP280;66486;49.992;19.164;2023-03-23T01:25:31;98406.78;;;7.81
77414;BMP280;66486;49.992;19.164;2023-03-23T01:27:58;98397.69;;;7.75
77414;BMP280;66486;49.992;19.164;2023-03-23T01:30:25;98401.72;;;7.56
77414;BMP280;66486;49.992;19.164;2023-03-23T01:32:53;98405.94;;;7.57
77414;BMP280;66486;49.992;19.164;2023-03-23T01:35:19;98406.72;;;7.58
77414;BMP280;66486;49.992;19.164;2023-03-23T01:37:45;98411.97;;;7.65
77414;BMP280;66486;49.992;19.164;2023-03-23T01:40:14;98416.34;;;7.82
77414;BMP280;66486;49.992;19.164;2023-03-23T01:42:40;98408.81;;;7.73
77414;BMP280;66486;49.992;19.164;2023-03-23T01:45:28;98392.81;;;7.70
77414;BMP280;66486;49.992;19.164;2023-03-23T01:47:59;98407.63;;;7.74
77414;BMP280;66486;49.992;19.164;2023-03-23T01:50:28;98394.19;;;7.51
77414;BMP280;66486;49.992;19.164;2023-03-23T01:52:57;98399.31;;;7.35
77414;BMP280;66486;49.992;19.164;2023-03-23T01:55:26;98398.81;;;7.47
77414;BMP280;66486;49.992;19.164;2023-03-23T01:57:54;98391.75;;;7.26
77414;BMP280;66486;49.992;19.164;2023-03-23T02:00:21;98388.47;;;7.12
77414;BMP280;66486;49.992;19.164;2023-03-23T02:02:49;98388.69;;;6.90
77414;BMP280;66486;49.992;19.164;2023-03-23T02:05:30;98387.09;;;6.96
77414;BMP280;66486;49.992;19.164;2023-03-23T02:08:00;98387.31;;;7.13
77414;BMP280;66486;49.992;19.164;2023-03-23T02:10:32;98385.75;;;7.15
77414;BMP280;66486;49.992;19.164;2023-03-23T02:13:00;98395.00;;;7.11
77414;BMP280;66486;49.992;19.164;2023-03-23T02:15:35;98386.25;;;7.07
77414;BMP280;66486;49.992;19.164;2023-03-23T02:18:21;98382.78;;;7.10
77414;BMP280;66486;49.992;19.164;2023-03-23T02:21:04;98384.16;;;7.25
77414;BMP280;66486;49.992;19.164;2023-03-23T02:26:15;98371.34;;;7.06
77414;BMP280;66486;49.992;19.164;2023-03-23T02:37:03;98377.81;;;7.42
77414;BMP280;66486;49.992;19.164;2023-03-23T02:42:08;98376.16;;;7.51
77414;BMP280;66486;49.992;19.164;2023-03-23T02:44:38;98377.31;;;7.54
77414;BMP280;66486;49.992;19.164;2023-03-23T02:47:08;98363.09;;;7.61
77414;BMP280;66486;49.992;19.164;2023-03-23T02:49:39;98355.94;;;7.50
77414;BMP280;66486;49.992;19.164;2023-03-23T02:52:11;98358.66;;;7.47
77414;BMP280;66486;49.992;19.164;2023-03-23T02:54:42;98356.66;;;7.54
77414;BMP280;66486;49.992;19.164;2023-03-23T02:57:10;98360.44;;;7.57
77414;BMP280;66486;49.992;19.164;2023-03-23T02:59:36;98356.19;;;7.60
77414;BMP280;66486;49.992;19.164;2023-03-23T03:02:14;98347.72;;;7.65
77414;BMP280;66486;49.992;19.164;2023-03-23T03:04:48;98350.72;;;7.70
77414;BMP280;66486;49.992;19.164;2023-03-23T03:15:21;98349.09;;;7.76
77414;BMP280;66486;49.992;19.164;2023-03-23T03:18:02;98345.19;;;7.81
77414;BMP280;66486;49.992;19.164;2023-03-23T03:20:30;98355.91;;;7.81
77414;BMP280;66486;49.992;19.164;2023-03-23T03:22:58;98340.69;;;7.74
77414;BMP280;66486;49.992;19.164;2023-03-23T03:25:25;98339.97;;;7.74
77414;BMP280;66486;49.992;19.164;2023-03-23T03:27:53;98333.75;;;7.80
77414;BMP280;66486;49.992;19.164;2023-03-23T03:30:24;98329.97;;;7.74
77414;BMP280;66486;49.992;19.164;2023-03-23T03:32:52;98329.56;;;7.79
77414;BMP280;66486;49.992;19.164;2023-03-23T03:35:22;98337.75;;;7.69
77414;BMP280;66486;49.992;19.164;2023-03-23T03:37:49;98333.91;;;7.66
77414;BMP280;66486;49.992;19.164;2023-03-23T03:40:20;98334.72;;;7.63
77414;BMP280;66486;49.992;19.164;2023-03-23T03:42:47;98335.06;;;7.69
77414;BMP280;66486;49.992;19.164;2023-03-23T03:45:18;98335.09;;;7.65
77414;BMP280;66486;49.992;19.164;2023-03-23T03:47:44;98353.03;;;7.68
77414;BMP280;66486;49.992;19.164;2023-03-23T03:50:11;98341.22;;;7.66
77414;BMP280;66486;49.992;19.164;2023-03-23T03:52:37;98342.91;;;7.52
77414;BMP280;66486;49.992;19.164;2023-03-23T03:55:05;98343.34;;;7.51
77414;BMP280;66486;49.992;19.164;2023-03-23T03:57:33;98350.25;;;7.45
77414;BMP280;66486;49.992;19.164;2023-03-23T03:59:59;98339.84;;;7.20
77414;BMP280;66486;49.992;19.164;2023-03-23T04:02:25;98337.22;;;7.17
77414;BMP280;66486;49.992;19.164;2023-03-23T04:04:51;98334.50;;;7.20
77414;BMP280;66486;49.992;19.164;2023-03-23T04:07:19;98325.38;;;7.18
77414;BMP280;66486;49.992;19.164;2023-03-23T04:09:47;98327.44;;;7.37
77414;BMP280;66486;49.992;19.164;2023-03-23T04:12:14;98344.09;;;7.48
77414;BMP280;66486;49.992;19.164;2023-03-23T04:14:41;98348.72;;;7.74
77414;BMP280;66486;49.992;19.164;2023-03-23T04:17:06;98353.22;;;7.54
77414;BMP280;66486;49.992;19.164;2023-03-23T04:19:35;98353.47;;;7.33
77414;BMP280;66486;49.992;19.164;2023-03-23T04:22:03;98348.31;;;7.15
77414;BMP280;66486;49.992;19.164;2023-03-23T04:24:30;98351.84;;;7.05
77414;BMP280;66486;49.992;19.164;2023-03-23T04:26:59;98350.72;;;7.06
77414;BMP280;66486;49.992;19.164;2023-03-23T04:29:25;98348.22;;;6.92
77414;BMP280;66486;49.992;19.164;2023-03-23T04:31:52;98347.25;;;7.09
77414;BMP280;66486;49.992;19.164;2023-03-23T04:34:18;98345.81;;;7.35
77414;BMP280;66486;49.992;19.164;2023-03-23T04:36:45;98348.50;;;7.31
77414;BMP280;66486;49.992;19.164;2023-03-23T04:39:12;98344.72;;;7.29
77414;BMP280;66486;49.992;19.164;2023-03-23T04:41:39;98333.16;;;7.39
77414;BMP280;66486;49.992;19.164;2023-03-23T04:44:06;98341.50;;;7.41
77414;BMP280;66486;49.992;19.164;2023-03-23T04:46:32;98337.50;;;7.26
77414;BMP280;66486;49.992;19.164;2023-03-23T04:48:59;98333.31;;;7.25
77414;BMP280;66486;49.992;19.164;2023-03-23T04:51:26;98323.38;;;7.25
77414;BMP280;66486;49.992;19.164;2023-03-23T04:53:53;98335.00;;;7.42
77414;BMP280;66486;49.992;19.164;2023-03-23T04:56:19;98334.09;;;7.52
77414;BMP280;66486;49.992;19.164;2023-03-23T04:58:45;98336.59;;;7.66
77414;BMP280;66486;49.992;19.164;2023-03-23T05:01:12;98330.00;;;7.47
77414;BMP280;66486;49.992;19.164;2023-03-23T05:03:44;98328.06;;;7.48
77414;BMP280;66486;49.992;19.164;2023-03-23T05:06:10;98320.06;;;7.44
77414;BMP280;66486;49.992;19.164;2023-03-23T05:08:37;98328.47;;;7.46
77414;BMP280;66486;49.992;19.164;2023-03-23T05:11:05;98335.78;;;7.42
77414;BMP280;66486;49.992;19.164;2023-03-23T05:13:32;98328.81;;;7.48
77414;BMP280;66486;49.992;19.164;2023-03-23T05:16:02;98330.09;;;7.67
77414;BMP280;66486;49.992;19.164;2023-03-23T05:18:28;98335.09;;;7.65
77414;BMP280;66486;49.992;19.164;2023-03-23T05:20:54;98345.19;;;7.54
77414;BMP280;66486;49.992;19.164;2023-03-23T05:23:20;98341.72;;;7.57
77414;BMP280;66486;49.992;19.164;2023-03-23T05:25:57;98339.13;;;7.80
77414;BMP280;66486;49.992;19.164;2023-03-23T05:28:29;98334.78;;;7.86
77414;BMP280;66486;49.992;19.164;2023-03-23T05:30:56;98341.31;;;7.85
77414;BMP280;66486;49.992;19.164;2023-03-23T05:33:23;98346.19;;;7.94
77414;BMP280;66486;49.992;19.164;2023-03-23T05:35:49;98340.06;;;7.93
77414;BMP280;66486;49.992;19.164;2023-03-23T05:38:16;98355.59;;;8.05
77414;BMP280;66486;49.992;19.164;2023-03-23T05:40:42;98339.50;;;8.05
77414;BMP280;66486;49.992;19.164;2023-03-23T05:43:09;98344.38;;;8.10
77414;BMP280;66486;49.992;19.164;2023-03-23T05:45:35;98359.94;;;8.46
77414;BMP280;66486;49.992;19.164;2023-03-23T05:48:01;98346.00;;;8.31
77414;BMP280;66486;49.992;19.164;2023-03-23T05:50:27;98360.09;;;8.35
77414;BMP280;66486;49.992;19.164;2023-03-23T05:52:55;98362.56;;;8.23
77414;BMP280;66486;49.992;19.164;2023-03-23T05:55:21;98356.34;;;8.29
77414;BMP280;66486;49.992;19.164;2023-03-23T05:57:47;98351.69;;;8.33
77414;BMP280;66486;49.992;19.164;2023-03-23T06:00:13;98349.41;;;8.55
77414;BMP280;66486;49.992;19.164;2023-03-23T06:02:40;98337.28;;;8.70
77414;BMP280;66486;49.992;19.164;2023-03-23T06:05:10;98332.22;;;8.76
77414;BMP280;66486;49.992;19.164;2023-03-23T06:07:36;98344.50;;;8.73
77414;BMP280;66486;49.992;19.164;2023-03-23T06:10:05;98335.78;;;8.89
77414;BMP280;66486;49.992;19.164;2023-03-23T06:12:32;98342.13;;;9.18
77414;BMP280;66486;49.992;19.164;2023-03-23T06:14:58;98336.59;;;9.45
77414;BMP280;66486;49.992;19.164;2023-03-23T06:17:24;98340.41;;;9.63
77414;BMP280;66486;49.992;19.164;2023-03-23T06:19:50;98338.78;;;9.85
77414;BMP280;66486;49.992;19.164;2023-03-23T06:22:17;98346.88;;;10.30
77414;BMP280;66486;49.992;19.164;2023-03-23T06:24:44;98338.91;;;10.72
77414;BMP280;66486;49.992;19.164;2023-03-23T06:27:10;98346.25;;;11.25
77414;BMP280;66486;49.992;19.164;2023-03-23T06:29:37;98338.69;;;11.61
77414;BMP280;66486;49.992;19.164;2023-03-23T06:32:04;98342.19;;;11.83
77414;BMP280;66486;49.992;19.164;2023-03-23T06:34:31;98333.03;;;12.28
77414;BMP280;66486;49.992;19.164;2023-03-23T06:36:58;98340.22;;;12.43
77414;BMP280;66486;49.992;19.164;2023-03-23T06:39:25;98334.16;;;12.52
77414;BMP280;66486;49.992;19.164;2023-03-23T06:41:52;98333.13;;;12.71
77414;BMP280;66486;49.992;19.164;2023-03-23T06:44:18;98328.69;;;12.86
77414;BMP280;66486;49.992;19.164;2023-03-23T06:46:44;98338.47;;;13.14
77414;BMP280;66486;49.992;19.164;2023-03-23T06:49:10;98338.19;;;13.21
77414;BMP280;66486;49.992;19.164;2023-03-23T06:51:36;98332.94;;;13.18
77414;BMP280;66486;49.992;19.164;2023-03-23T06:54:03;98333.56;;;13.22
77414;BMP280;66486;49.992;19.164;2023-03-23T06:56:30;98340.63;;;13.28
77414;BMP280;66486;49.992;19.164;2023-03-23T06:58:56;98330.44;;;13.32
77414;BMP280;66486;49.992;19.164;2023-03-23T07:01:22;98328.22;;;13.40
77414;BMP280;66486;49.992;19.164;2023-03-23T07:03:48;98327.84;;;13.51
77414;BMP280;66486;49.992;19.164;2023-03-23T07:06:15;98336.41;;;13.58
77414;BMP280;66486;49.992;19.164;2023-03-23T07:08:42;98324.56;;;13.65
77414;BMP280;66486;49.992;19.164;2023-03-23T07:11:08;98329.41;;;13.70
77414;BMP280;66486;49.992;19.164;2023-03-23T07:13:36;98329.59;;;13.93
77414;BMP280;66486;49.992;19.164;2023-03-23T07:16:05;98333.94;;;14.00
77414;BMP280;66486;49.992;19.164;2023-03-23T07:18:31;98329.16;;;13.95
77414;BMP280;66486;49.992;19.164;2023-03-23T07:20:58;98328.25;;;14.07
77414;BMP280;66486;49.992;19.164;2023-03-23T07:23:24;98329.19;;;14.31
77414;BMP280;66486;49.992;19.164;2023-03-23T07:25:50;98337.28;;;14.49
77414;BMP280;66486;49.992;19.164;2023-03-23T07:28:16;98339.03;;;14.61
77414;BMP280;66486;49.992;19.164;2023-03-23T07:30:42;98337.81;;;14.81
77414;BMP280;66486;49.992;19.164;2023-03-23T07:33:09;98341.34;;;14.72
77414;BMP280;66486;49.992;19.164;2023-03-23T07:35:36;98333.88;;;14.91
77414;BMP280;66486;49.992;19.164;2023-03-23T07:38:03;98332.69;;;14.92
77414;BMP280;66486;49.992;19.164;2023-03-23T07:40:30;98323.47;;;14.98
77414;BMP280;66486;49.992;19.164;2023-03-23T07:42:59;98335.06;;;15.08
77414;BMP280;66486;49.992;19.164;2023-03-23T07:45:27;98330.72;;;15.01
77414;BMP280;66486;49.992;19.164;2023-03-23T07:47:53;98331.69;;;15.13
77414;BMP280;66486;49.992;19.164;2023-03-23T07:50:20;98340.44;;;15.17
77414;BMP280;66486;49.992;19.164;2023-03-23T07:52:57;98340.84;;;15.24
77414;BMP280;66486;49.992;19.164;2023-03-23T07:55:25;98349.34;;;15.17
77414;BMP280;66486;49.992;19.164;2023-03-23T07:57:52;98342.53;;;15.22
77414;BMP280;66486;49.992;19.164;2023-03-23T08:00:20;98348.47;;;15.35
77414;BMP280;66486;49.992;19.164;2023-03-23T08:02:50;98349.38;;;15.41
77414;BMP280;66486;49.992;19.164;2023-03-23T08:05:17;98346.34;;;15.48
77414;BMP280;66486;49.992;19.164;2023-03-23T08:07:44;98344.47;;;15.63
77414;BMP280;66486;49.992;19.164;2023-03-23T08:10:12;98350.06;;;15.60
77414;BMP280;66486;49.992;19.164;2023-03-23T08:12:39;98342.94;;;15.62
77414;BMP280;66486;49.992;19.164;2023-03-23T08:15:06;98349.53;;;15.94
77414;BMP280;66486;49.992;19.164;2023-03-23T08:17:33;98345.69;;;16.00
77414;BMP280;66486;49.992;19.164;2023-03-23T08:20:00;98354.06;;;16.11
77414;BMP280;66486;49.992;19.164;2023-03-23T08:22:26;98353.00;;;16.18
77414;BMP280;66486;49.992;19.164;2023-03-23T08:24:55;98362.66;;;16.34
77414;BMP280;66486;49.992;19.164;2023-03-23T08:27:20;98353.94;;;16.29
77414;BMP280;66486;49.992;19.164;2023-03-23T08:29:47;98350.59;;;16.35
77414;BMP280;66486;49.992;19.164;2023-03-23T08:32:14;98354.22;;;16.32
77414;BMP280;66486;49.992;19.164;2023-03-23T08:34:40;98353.22;;;16.29
77414;BMP280;66486;49.992;19.164;2023-03-23T08:37:07;98348.88;;;16.37
77414;BMP280;66486;49.992;19.164;2023-03-23T08:39:34;98354.97;;;16.32
77414;BMP280;66486;49.992;19.164;2023-03-23T08:42:00;98353.78;;;16.48
77414;BMP280;66486;49.992;19.164;2023-03-23T08:44:27;98356.50;;;16.48
77414;BMP280;66486;49.992;19.164;2023-03-23T08:46:53;98355.84;;;16.53
77414;BMP280;66486;49.992;19.164;2023-03-23T08:49:23;98350.06;;;16.60
77414;BMP280;66486;49.992;19.164;2023-03-23T08:51:50;98348.41;;;16.77
77414;BMP280;66486;49.992;19.164;2023-03-23T08:54:16;98343.28;;;16.99
77414;BMP280;66486;49.992;19.164;2023-03-23T08:56:43;98350.72;;;17.33
77414;BMP280;66486;49.992;19.164;2023-03-23T08:59:09;98348.84;;;17.39
77414;BMP280;66486;49.992;19.164;2023-03-23T09:01:35;98341.66;;;17.36
77414;BMP280;66486;49.992;19.164;2023-03-23T09:04:01;98338.66;;;17.54
77414;BMP280;66486;49.992;19.164;2023-03-23T09:06:27;98346.59;;;17.52
77414;BMP280;66486;49.992;19.164;2023-03-23T09:08:53;98340.22;;;17.41
77414;BMP280;66486;49.992;19.164;2023-03-23T09:11:21;98345.03;;;17.66
77414;BMP280;66486;49.992;19.164;2023-03-23T09:13:48;98334.72;;;17.96
77414;BMP280;66486;49.992;19.164;2023-03-23T09:16:13;98335.03;;;18.23
77414;BMP280;66486;49.992;19.164;2023-03-23T09:18:40;98337.63;;;18.38
77414;BMP280;66486;49.992;19.164;2023-03-23T09:21:06;98325.72;;;18.55
77414;BMP280;66486;49.992;19.164;2023-03-23T09:23:32;98338.53;;;18.81
77414;BMP280;66486;49.992;19.164;2023-03-23T09:26:02;98333.56;;;18.79
77414;BMP280;66486;49.992;19.164;2023-03-23T09:28:29;98345.53;;;18.87
77414;BMP280;66486;49.992;19.164;2023-03-23T09:30:56;98339.69;;;19.00
77414;BMP280;66486;49.992;19.164;2023-03-23T09:33:24;98347.72;;;19.14
77414;BMP280;66486;49.992;19.164;2023-03-23T09:35:49;98350.25;;;19.23
77414;BMP280;66486;49.992;19.164;2023-03-23T09:38:16;98344.66;;;19.43
77414;BMP280;66486;49.992;19.164;2023-03-23T09:40:48;98350.84;;;19.38
77414;BMP280;66486;49.992;19.164;2023-03-23T09:49:17;98337.41;;;19.94
77414;BMP280;66486;49.992;19.164;2023-03-23T09:52:15;98342.94;;;20.32
77414;BMP280;66486;49.992;19.164;2023-03-23T09:54:51;98341.22;;;20.13
77414;BMP280;66486;49.992;19.164;2023-03-23T10:00:19;98342.09;;;19.88
77414;BMP280;66486;49.992;19.164;2023-03-23T10:03:10;98332.41;;;19.76
77414;BMP280;66486;49.992;19.164;2023-03-23T10:05:42;98321.25;;;19.79
77414;BMP280;66486;49.992;19.164;2023-03-23T10:08:21;98325.25;;;19.95
77414;BMP280;66486;49.992;19.164;2023-03-23T10:16:29;98316.84;;;20.31
77414;BMP280;66486;49.992;19.164;2023-03-23T10:19:21;98313.91;;;20.29
77414;BMP280;66486;49.992;19.164;2023-03-23T10:21:54;98314.63;;;20.24
77414;BMP280;66486;49.992;19.164;2023-03-23T10:24:34;98300.22;;;20.46
77414;BMP280;66486;49.992;19.164;2023-03-23T10:27:18;98316.16;;;20.59
77414;BMP280;66486;49.992;19.164;2023-03-23T10:29:52;98297.47;;;20.57
77414;BMP280;66486;49.992;19.164;2023-03-23T10:32:39;98312.41;;;20.67
77414;BMP280;66486;49.992;19.164;2023-03-23T10:35:14;98312.91;;;20.71
77414;BMP280;66486;49.992;19.164;2023-03-23T10:37:50;98307.72;;;20.68
77414;BMP280;66486;49.992;19.164;2023-03-23T10:40:23;98316.63;;;20.74
77414;BMP280;66486;49.992;19.164;2023-03-23T10:42:50;98300.97;;;20.74
77414;BMP280;66486;49.992;19.164;2023-03-23T10:45:22;98315.91;;;20.79
77414;BMP280;66486;49.992;19.164;2023-03-23T10:48:23;98319.63;;;20.76
77414;BMP280;66486;49.992;19.164;2023-03-23T10:50:55;98323.13;;;20.60
77414;BMP280;66486;49.992;19.164;2023-03-23T10:53:36;98312.91;;;20.49
77414;BMP280;66486;49.992;19.164;2023-03-23T10:56:03;98309.16;;;20.69
77414;BMP280;66486;49.992;19.164;2023-03-23T10:58:32;98310.41;;;20.62
77414;BMP280;66486;49.992;19.164;2023-03-23T11:01:01;98313.91;;;20.63
77414;BMP280;66486;49.992;19.164;2023-03-23T11:03:43;98309.94;;;20.58
77414;BMP280;66486;49.992;19.164;2023-03-23T11:06:19;98296.50;;;20.55
77414;BMP280;66486;49.992;19.164;2023-03-23T11:09:09;98313.38;;;20.20
77414;BMP280;66486;49.992;19.164;2023-03-23T11:11:42;98306.41;;;20.08
77414;BMP280;66486;49.992;19.164;2023-03-23T11:14:33;98302.41;;;19.98
77414;BMP280;66486;49.992;19.164;2023-03-23T11:17:03;98294.16;;;19.81
77414;BMP280;66486;49.992;19.164;2023-03-23T11:19:31;98303.38;;;19.89
77414;BMP280;66486;49.992;19.164;2023-03-23T11:22:08;98303.34;;;19.67
77414;BMP280;66486;49.992;19.164;2023-03-23T11:24:45;98298.31;;;19.60
77414;BMP280;66486;49.992;19.164;2023-03-23T11:27:13;98307.28;;;19.66
77414;BMP280;66486;49.992;19.164;2023-03-23T11:32:24;98310.72;;;19.55
77414;BMP280;66486;49.992;19.164;2023-03-23T11:34:55;98316.41;;;19.52
77414;BMP280;66486;49.992;19.164;2023-03-23T11:39:59;98308.09;;;19.24
77414;BMP280;66486;49.992;19.164;2023-03-23T11:42:42;98305.53;;;19.15
77414;BMP280;66486;49.992;19.164;2023-03-23T11:45:34;98303.56;;;19.16
77414;BMP280;66486;49.992;19.164;2023-03-23T11:48:15;98309.38;;;19.34
77414;BMP280;66486;49.992;19.164;2023-03-23T11:50:47;98308.16;;;19.35
77414;BMP280;66486;49.992;19.164;2023-03-23T11:58:22;98295.94;;;19.25
77414;BMP280;66486;49.992;19.164;2023-03-23T12:00:57;98299.69;;;19.28
77414;BMP280;66486;49.992;19.164;2023-03-23T12:06:09;98298.13;;;19.10
77414;BMP280;66486;49.992;19.164;2023-03-23T12:14:32;98288.22;;;18.82
77414;BMP280;66486;49.992;19.164;2023-03-23T12:25:47;98282.34;;;18.89
77414;BMP280;66486;49.992;19.164;2023-03-23T12:38:23;98282.13;;;18.61
77414;BMP280;66486;49.992;19.164;2023-03-23T12:43:52;98268.72;;;18.57
77414;BMP280;66486;49.992;19.164;2023-03-23T12:49:04;98276.34;;;18.48
77414;BMP280;66486;49.992;19.164;2023-03-23T12:57:11;98280.06;;;18.50
77414;BMP280;66486;49.992;19.164;2023-03-23T13:02:31;98289.19;;;18.47
77414;BMP280;66486;49.992;19.164;2023-03-23T13:05:07;98290.97;;;18.50
77414;BMP280;66486;49.992;19.164;2023-03-23T13:07:48;98284.44;;;18.42
77414;BMP280;66486;49.992;19.164;2023-03-23T13:10:21;98281.47;;;18.40
77414;BMP280;66486;49.992;19.164;2023-03-23T13:12:48;98276.34;;;18.48
77414;BMP280;66486;49.992;19.164;2023-03-23T13:15:33;98281.06;;;18.53
77414;BMP280;66486;49.992;19.164;2023-03-23T13:23:52;98273.06;;;18.75
77414;BMP280;66486;49.992;19.164;2023-03-23T13:26:21;98268.81;;;18.68
77414;BMP280;66486;49.992;19.164;2023-03-23T13:37:21;98260.38;;;19.03
77414;BMP280;66486;49.992;19.164;2023-03-23T13:50:00;98238.91;;;18.74
77414;BMP280;66486;49.992;19.164;2023-03-23T13:55:37;98250.66;;;18.97
77414;BMP280;66486;49.992;19.164;2023-03-23T14:11:08;98224.88;;;18.92
77414;BMP280;66486;49.992;19.164;2023-03-23T14:16:28;98214.28;;;19.05
77414;BMP280;66486;49.992;19.164;2023-03-23T14:18:59;98220.25;;;19.09
77414;BMP280;66486;49.992;19.164;2023-03-23T14:21:39;98219.53;;;19.14
77414;BMP280;66486;49.992;19.164;2023-03-23T14:24:14;98223.00;;;19.20
77414;BMP280;66486;49.992;19.164;2023-03-23T14:26:41;98224.25;;;19.14
77414;BMP280;66486;49.992;19.164;2023-03-23T14:29:11;98226.66;;;19.06
77414;BMP280;66486;49.992;19.164;2023-03-23T14:31:38;98226.22;;;19.13
77414;BMP280;66486;49.992;19.164;2023-03-23T14:34:14;98224.50;;;19.21
77414;BMP280;66486;49.992;19.164;2023-03-23T14:36:42;98223.50;;;19.19
77414;BMP280;66486;49.992;19.164;2023-03-23T14:39:45;98216.00;;;19.03
77414;BMP280;66486;49.992;19.164;2023-03-23T14:42:18;98228.19;;;19.13
77414;BMP280;66486;49.992;19.164;2023-03-23T14:44:47;98221.28;;;19.17
77414;BMP280;66486;49.992;19.164;2023-03-23T14:47:22;98226.44;;;19.15
77414;BMP280;66486;49.992;19.164;2023-03-23T14:49:57;98229.75;;;19.30
77414;BMP280;66486;49.992;19.164;2023-03-23T14:52:32;98231.28;;;19.42
77414;BMP280;66486;49.992;19.164;2023-03-23T14:55:27;98234.16;;;19.22
77414;BMP280;66486;49.992;19.164;2023-03-23T14:58:05;98233.41;;;19.16
77414;BMP280;66486;49.992;19.164;2023-03-23T15:00:38;98222.25;;;19.14
77414;BMP280;66486;49.992;19.164;2023-03-23T15:03:06;98224.41;;;18.99
77414;BMP280;66486;49.992;19.164;2023-03-23T15:05:41;98226.63;;;18.95
77414;BMP280;66486;49.992;19.164;2023-03-23T15:08:46;98231.16;;;19.09
77414;BMP280;66486;49.992;19.164;2023-03-23T15:13:59;98223.72;;;19.10
77414;BMP280;66486;49.992;19.164;2023-03-23T15:16:31;98223.72;;;19.15
77414;BMP280;66486;49.992;19.164;2023-03-23T15:19:05;98221.97;;;19.07
77414;BMP280;66486;49.992;19.164;2023-03-23T15:24:39;98227.47;;;18.76
77414;BMP280;66486;49.992;19.164;2023-03-23T15:29:32;98218.03;;;18.71
77414;BMP280;66486;49.992;19.164;2023-03-23T15:31:58;98217.50;;;18.67
77414;BMP280;66486;49.992;19.164;2023-03-23T15:34:34;98212.28;;;18.63
77414;BMP280;66486;49.992;19.164;2023-03-23T15:37:27;98217.63;;;18.52
77414;BMP280;66486;49.992;19.164;2023-03-23T15:39:55;98218.59;;;18.44
77414;BMP280;66486;49.992;19.164;2023-03-23T15:47:44;98228.09;;;18.23
77414;BMP280;66486;49.992;19.164;2023-03-23T15:52:52;98223.16;;;18.27
77414;BMP280;66486;49.992;19.164;2023-03-23T15:57:54;98205.44;;;18.11
77414;BMP280;66486;49.992;19.164;2023-03-23T16:00:22;98227.16;;;18.06
77414;BMP280;66486;49.992;19.164;2023-03-23T16:02:53;98219.31;;;18.13
77414;BMP280;66486;49.992;19.164;2023-03-23T16:05:20;98216.22;;;18.26
77414;BMP280;66486;49.992;19.164;2023-03-23T16:07:46;98208.09;;;18.06
77414;BMP280;66486;49.992;19.164;2023-03-23T16:10:20;98217.09;;;17.86
77414;BMP280;66486;49.992;19.164;2023-03-23T16:12:46;98234.91;;;17.87
77414;BMP280;66486;49.992;19.164;2023-03-23T16:15:13;98229.34;;;17.76
77414;BMP280;66486;49.992;19.164;2023-03-23T16:17:39;98219.72;;;17.75
77414;BMP280;66486;49.992;19.164;2023-03-23T16:20:17;98225.28;;;17.66
77414;BMP280;66486;49.992;19.164;2023-03-23T16:22:45;98234.22;;;17.92
77414;BMP280;66486;49.992;19.164;2023-03-23T16:25:11;98225.31;;;17.92
77414;BMP280;66486;49.992;19.164;2023-03-23T16:27:39;98220.75;;;17.83
77414;BMP280;66486;49.992;19.164;2023-03-23T16:30:27;98231.84;;;18.00
77414;BMP280;66486;49.992;19.164;2023-03-23T16:32:55;98197.72;;;17.78
77414;BMP280;66486;49.992;19.164;2023-03-23T16:35:21;98241.28;;;18.04
77414;BMP280;66486;49.992;19.164;2023-03-23T16:37:49;98249.47;;;18.04
77414;BMP280;66486;49.992;19.164;2023-03-23T16:40:17;98242.75;;;18.05
77414;BMP280;66486;49.992;19.164;2023-03-23T16:42:44;98238.22;;;17.97
77414;BMP280;66486;49.992;19.164;2023-03-23T16:45:11;98236.91;;;17.86
77414;BMP280;66486;49.992;19.164;2023-03-23T16:47:38;98232.78;;;17.71